sensor_id;sensor_type;location;lat;lon;timestamp;pressure;altitude;pressure_sealevel;temperature
62611;BMP280;48683;48.084;17.272;2022-12-17T00:01:53;100105.44;;;0.88
62611;BMP280;48683;48.084;17.272;2022-12-17T00:04:37;100101.06;;;0.92
62611;BMP280;48683;48.084;17.272;2022-12-17T00:07:21;100096.22;;;0.94
62611;BMP280;48683;48.084;17.272;2022-12-17T00:10:06;100099.69;;;0.86
62611;BMP280;48683;48.084;17.272;2022-12-17T00:12:50;100083.03;;;0.74
62611;BMP280;48683;48.084;17.272;2022-12-17T00:15:34;100075.66;;;0.59
62611;BMP280;48683;48.084;17.272;2022-12-17T00:18:18;100076.56;;;0.63
62611;BMP280;48683;48.084;17.272;2022-12-17T00:21:02;100068.06;;;0.57
62611;BMP280;48683;48.084;17.272;2022-12-17T00:23:47;100066.97;;;0.58
62611;BMP280;48683;48.084;17.272;2022-12-17T00:26:31;100073.47;;;0.61
62611;BMP280;48683;48.084;17.272;2022-12-17T00:29:16;100080.94;;;0.59
62611;BMP280;48683;48.084;17.272;2022-12-17T00:32:00;100092.59;;;0.58
62611;BMP280;48683;48.084;17.272;2022-12-17T00:34:44;100097.91;;;0.58
62611;BMP280;48683;48.084;17.272;2022-12-17T00:37:28;100080.53;;;0.48
62611;BMP280;48683;48.084;17.272;2022-12-17T00:40:12;100082.13;;;0.40
62611;BMP280;48683;48.084;17.272;2022-12-17T00:43:14;100081.25;;;0.28
62611;BMP280;48683;48.084;17.272;2022-12-17T00:45:58;100098.22;;;0.27
62611;BMP280;48683;48.084;17.272;2022-12-17T00:48:43;100118.72;;;0.30
62611;BMP280;48683;48.084;17.272;2022-12-17T00:51:27;100122.84;;;0.39
62611;BMP280;48683;48.084;17.272;2022-12-17T00:54:11;100127.97;;;0.36
62611;BMP280;48683;48.084;17.272;2022-12-17T00:56:55;100125.38;;;0.27
62611;BMP280;48683;48.084;17.272;2022-12-17T00:59:39;100123.06;;;0.26
62611;BMP280;48683;48.084;17.272;2022-12-17T01:02:24;100133.78;;;0.29
62611;BMP280;48683;48.084;17.272;2022-12-17T01:05:09;100151.28;;;0.42
62611;BMP280;48683;48.084;17.272;2022-12-17T01:07:54;100143.06;;;0.35
62611;BMP280;48683;48.084;17.272;2022-12-17T01:11:05;100132.81;;;0.34
62611;BMP280;48683;48.084;17.272;2022-12-17T01:13:50;100120.34;;;0.43
62611;BMP280;48683;48.084;17.272;2022-12-17T01:16:34;100115.81;;;0.43
62611;BMP280;48683;48.084;17.272;2022-12-17T01:19:18;100096.28;;;0.36
62611;BMP280;48683;48.084;17.272;2022-12-17T01:22:02;100084.94;;;0.35
62611;BMP280;48683;48.084;17.272;2022-12-17T01:24:46;100078.34;;;0.21
62611;BMP280;48683;48.084;17.272;2022-12-17T01:27:30;100098.41;;;0.22
62611;BMP280;48683;48.084;17.272;2022-12-17T01:30:14;100108.69;;;0.15
62611;BMP280;48683;48.084;17.272;2022-12-17T01:33:05;100133.81;;;0.21
62611;BMP280;48683;48.084;17.272;2022-12-17T01:35:53;100160.97;;;0.30
62611;BMP280;48683;48.084;17.272;2022-12-17T01:38:37;100187.88;;;0.23
62611;BMP280;48683;48.084;17.272;2022-12-17T01:41:21;100196.53;;;0.24
62611;BMP280;48683;48.084;17.272;2022-12-17T01:44:44;100214.72;;;0.25
62611;BMP280;48683;48.084;17.272;2022-12-17T01:47:44;100225.13;;;0.22
62611;BMP280;48683;48.084;17.272;2022-12-17T01:50:56;100244.06;;;0.24
62611;BMP280;48683;48.084;17.272;2022-12-17T01:53:45;100259.91;;;0.24
62611;BMP280;48683;48.084;17.272;2022-12-17T01:56:31;100265.03;;;0.20
62611;BMP280;48683;48.084;17.272;2022-12-17T01:59:17;100264.13;;;0.16
62611;BMP280;48683;48.084;17.272;2022-12-17T02:02:02;100281.81;;;0.16
62611;BMP280;48683;48.084;17.272;2022-12-17T02:04:46;100293.19;;;0.08
62611;BMP280;48683;48.084;17.272;2022-12-17T02:07:46;100302.00;;;0.20
62611;BMP280;48683;48.084;17.272;2022-12-17T02:13:31;100314.44;;;0.20
62611;BMP280;48683;48.084;17.272;2022-12-17T02:16:42;100314.28;;;0.16
62611;BMP280;48683;48.084;17.272;2022-12-17T02:25:56;100304.03;;;0.23
62611;BMP280;48683;48.084;17.272;2022-12-17T02:28:45;100300.63;;;0.14
62611;BMP280;48683;48.084;17.272;2022-12-17T02:31:31;100301.06;;;0.16
62611;BMP280;48683;48.084;17.272;2022-12-17T02:34:16;100293.34;;;0.11
62611;BMP280;48683;48.084;17.272;2022-12-17T02:37:00;100290.38;;;0.13
62611;BMP280;48683;48.084;17.272;2022-12-17T02:39:43;100271.59;;;0.06
62611;BMP280;48683;48.084;17.272;2022-12-17T02:42:28;100266.00;;;0.07
62611;BMP280;48683;48.084;17.272;2022-12-17T02:45:14;100267.88;;;0.07
62611;BMP280;48683;48.084;17.272;2022-12-17T02:47:59;100280.91;;;0.12
62611;BMP280;48683;48.084;17.272;2022-12-17T02:50:44;100258.72;;;-0.05
62611;BMP280;48683;48.084;17.272;2022-12-17T02:53:31;100274.88;;;0.03
62611;BMP280;48683;48.084;17.272;2022-12-17T02:56:15;100268.94;;;0.06
62611;BMP280;48683;48.084;17.272;2022-12-17T02:58:59;100268.81;;;0.02
62611;BMP280;48683;48.084;17.272;2022-12-17T03:01:43;100265.53;;;-0.04
62611;BMP280;48683;48.084;17.272;2022-12-17T03:04:27;100266.31;;;-0.12
62611;BMP280;48683;48.084;17.272;2022-12-17T03:07:11;100266.16;;;-0.15
62611;BMP280;48683;48.084;17.272;2022-12-17T03:09:54;100281.69;;;-0.05
62611;BMP280;48683;48.084;17.272;2022-12-17T03:12:38;100295.69;;;-0.05
62611;BMP280;48683;48.084;17.272;2022-12-17T03:15:22;100292.13;;;-0.09
62611;BMP280;48683;48.084;17.272;2022-12-17T03:18:06;100287.44;;;-0.12
62611;BMP280;48683;48.084;17.272;2022-12-17T03:20:54;100300.63;;;-0.03
62611;BMP280;48683;48.084;17.272;2022-12-17T03:23:38;100318.31;;;0.05
62611;BMP280;48683;48.084;17.272;2022-12-17T03:26:22;100325.94;;;0.07
62611;BMP280;48683;48.084;17.272;2022-12-17T03:29:06;100315.25;;;-0.06
62611;BMP280;48683;48.084;17.272;2022-12-17T03:31:50;100327.66;;;-0.06
62611;BMP280;48683;48.084;17.272;2022-12-17T03:34:34;100320.50;;;-0.14
62611;BMP280;48683;48.084;17.272;2022-12-17T03:37:38;100323.94;;;-0.05
62611;BMP280;48683;48.084;17.272;2022-12-17T03:40:22;100330.59;;;-0.08
62611;BMP280;48683;48.084;17.272;2022-12-17T03:43:07;100340.84;;;-0.06
62611;BMP280;48683;48.084;17.272;2022-12-17T03:45:52;100352.03;;;-0.09
62611;BMP280;48683;48.084;17.272;2022-12-17T03:48:36;100369.09;;;-0.15
62611;BMP280;48683;48.084;17.272;2022-12-17T03:51:21;100372.66;;;-0.11
62611;BMP280;48683;48.084;17.272;2022-12-17T03:54:05;100365.19;;;-0.26
62611;BMP280;48683;48.084;17.272;2022-12-17T03:56:49;100358.03;;;-0.34
62611;BMP280;48683;48.084;17.272;2022-12-17T03:59:33;100356.97;;;-0.25
62611;BMP280;48683;48.084;17.272;2022-12-17T04:02:17;100358.97;;;-0.30
62611;BMP280;48683;48.084;17.272;2022-12-17T04:05:01;100364.72;;;-0.37
62611;BMP280;48683;48.084;17.272;2022-12-17T04:07:44;100360.09;;;-0.31
62611;BMP280;48683;48.084;17.272;2022-12-17T04:10:28;100368.16;;;-0.36
62611;BMP280;48683;48.084;17.272;2022-12-17T04:13:12;100349.19;;;-0.47
62611;BMP280;48683;48.084;17.272;2022-12-17T04:15:56;100345.31;;;-0.41
62611;BMP280;48683;48.084;17.272;2022-12-17T04:18:40;100368.75;;;-0.39
62611;BMP280;48683;48.084;17.272;2022-12-17T04:21:24;100380.56;;;-0.28
62611;BMP280;48683;48.084;17.272;2022-12-17T04:24:08;100366.13;;;-0.39
62611;BMP280;48683;48.084;17.272;2022-12-17T04:26:59;100370.63;;;-0.40
62611;BMP280;48683;48.084;17.272;2022-12-17T04:29:43;100363.94;;;-0.37
62611;BMP280;48683;48.084;17.272;2022-12-17T04:32:27;100355.88;;;-0.41
62611;BMP280;48683;48.084;17.272;2022-12-17T04:35:11;100365.03;;;-0.38
62611;BMP280;48683;48.084;17.272;2022-12-17T04:37:55;100377.47;;;-0.39
62611;BMP280;48683;48.084;17.272;2022-12-17T04:40:39;100382.41;;;-0.37
62611;BMP280;48683;48.084;17.272;2022-12-17T04:43:23;100394.56;;;-0.28
62611;BMP280;48683;48.084;17.272;2022-12-17T04:46:07;100394.19;;;-0.35
62611;BMP280;48683;48.084;17.272;2022-12-17T04:49:10;100353.34;;;-0.63
62611;BMP280;48683;48.084;17.272;2022-12-17T04:52:02;100386.13;;;-0.38
62611;BMP280;48683;48.084;17.272;2022-12-17T04:54:46;100404.28;;;-0.37
62611;BMP280;48683;48.084;17.272;2022-12-17T04:57:30;100404.75;;;-0.35
62611;BMP280;48683;48.084;17.272;2022-12-17T05:00:15;100397.00;;;-0.40
62611;BMP280;48683;48.084;17.272;2022-12-17T05:03:06;100397.00;;;-0.40
62611;BMP280;48683;48.084;17.272;2022-12-17T05:05:54;100408.16;;;-0.43
62611;BMP280;48683;48.084;17.272;2022-12-17T05:08:38;100413.44;;;-0.34
62611;BMP280;48683;48.084;17.272;2022-12-17T05:11:22;100427.91;;;-0.32
62611;BMP280;48683;48.084;17.272;2022-12-17T05:14:07;100426.63;;;-0.34
62611;BMP280;48683;48.084;17.272;2022-12-17T05:16:51;100431.16;;;-0.26
62611;BMP280;48683;48.084;17.272;2022-12-17T05:19:35;100440.66;;;-0.25
62611;BMP280;48683;48.084;17.272;2022-12-17T05:22:19;100451.81;;;-0.28
62611;BMP280;48683;48.084;17.272;2022-12-17T05:25:03;100448.22;;;-0.32
62611;BMP280;48683;48.084;17.272;2022-12-17T05:27:47;100470.91;;;-0.23
62611;BMP280;48683;48.084;17.272;2022-12-17T05:30:31;100478.97;;;-0.19
62611;BMP280;48683;48.084;17.272;2022-12-17T05:33:15;100501.19;;;-0.20
62611;BMP280;48683;48.084;17.272;2022-12-17T05:36:00;100500.72;;;-0.22
62611;BMP280;48683;48.084;17.272;2022-12-17T05:38:44;100505.22;;;-0.23
62611;BMP280;48683;48.084;17.272;2022-12-17T05:41:28;100505.38;;;-0.19
62611;BMP280;48683;48.084;17.272;2022-12-17T05:44:12;100508.13;;;-0.33
62611;BMP280;48683;48.084;17.272;2022-12-17T05:46:56;100532.25;;;-0.17
62611;BMP280;48683;48.084;17.272;2022-12-17T05:49:56;100528.34;;;-0.28
62611;BMP280;48683;48.084;17.272;2022-12-17T05:52:40;100529.28;;;-0.24
62611;BMP280;48683;48.084;17.272;2022-12-17T05:55:24;100533.28;;;-0.27
62611;BMP280;48683;48.084;17.272;2022-12-17T05:58:09;100537.81;;;-0.19
62611;BMP280;48683;48.084;17.272;2022-12-17T06:00:58;100539.66;;;-0.28
62611;BMP280;48683;48.084;17.272;2022-12-17T06:03:42;100546.03;;;-0.29
62611;BMP280;48683;48.084;17.272;2022-12-17T06:06:26;100553.03;;;-0.24
62611;BMP280;48683;48.084;17.272;2022-12-17T06:09:10;100539.78;;;-0.33
62611;BMP280;48683;48.084;17.272;2022-12-17T06:11:54;100548.16;;;-0.31
62611;BMP280;48683;48.084;17.272;2022-12-17T06:14:38;100552.88;;;-0.28
62611;BMP280;48683;48.084;17.272;2022-12-17T06:17:22;100538.72;;;-0.32
62611;BMP280;48683;48.084;17.272;2022-12-17T06:20:07;100552.38;;;-0.30
62611;BMP280;48683;48.084;17.272;2022-12-17T06:23:17;100553.94;;;-0.29
62611;BMP280;48683;48.084;17.272;2022-12-17T06:26:01;100561.34;;;-0.31
62611;BMP280;48683;48.084;17.272;2022-12-17T06:28:45;100555.63;;;-0.33
62611;BMP280;48683;48.084;17.272;2022-12-17T06:31:29;100592.44;;;-0.28
62611;BMP280;48683;48.084;17.272;2022-12-17T06:34:13;100596.44;;;-0.30
62611;BMP280;48683;48.084;17.272;2022-12-17T06:36:57;100602.22;;;-0.28
62611;BMP280;48683;48.084;17.272;2022-12-17T06:39:46;100605.81;;;-0.24
62611;BMP280;48683;48.084;17.272;2022-12-17T06:42:30;100593.41;;;-0.24
62611;BMP280;48683;48.084;17.272;2022-12-17T06:45:14;100602.69;;;-0.26
62611;BMP280;48683;48.084;17.272;2022-12-17T06:48:06;100615.88;;;-0.26
62611;BMP280;48683;48.084;17.272;2022-12-17T06:50:55;100622.88;;;-0.22
62611;BMP280;48683;48.084;17.272;2022-12-17T06:53:39;100629.41;;;-0.19
62611;BMP280;48683;48.084;17.272;2022-12-17T06:56:24;100653.94;;;-0.19
62611;BMP280;48683;48.084;17.272;2022-12-17T06:59:08;100662.69;;;-0.10
62611;BMP280;48683;48.084;17.272;2022-12-17T07:01:52;100658.63;;;-0.16
62611;BMP280;48683;48.084;17.272;2022-12-17T07:04:36;100673.53;;;-0.11
62611;BMP280;48683;48.084;17.272;2022-12-17T07:07:20;100677.88;;;-0.15
62611;BMP280;48683;48.084;17.272;2022-12-17T07:10:04;100685.03;;;-0.16
62611;BMP280;48683;48.084;17.272;2022-12-17T07:12:49;100702.28;;;-0.10
62611;BMP280;48683;48.084;17.272;2022-12-17T07:15:33;100701.63;;;-0.15
62611;BMP280;48683;48.084;17.272;2022-12-17T07:18:17;100697.44;;;-0.16
62611;BMP280;48683;48.084;17.272;2022-12-17T07:21:18;100700.53;;;-0.14
62611;BMP280;48683;48.084;17.272;2022-12-17T07:24:02;100708.97;;;-0.12
62611;BMP280;48683;48.084;17.272;2022-12-17T07:26:46;100726.34;;;-0.11
62611;BMP280;48683;48.084;17.272;2022-12-17T07:29:30;100720.16;;;-0.07
62611;BMP280;48683;48.084;17.272;2022-12-17T07:32:13;100720.75;;;-0.10
62611;BMP280;48683;48.084;17.272;2022-12-17T07:34:57;100740.31;;;-0.11
62611;BMP280;48683;48.084;17.272;2022-12-17T07:37:41;100737.06;;;-0.08
62611;BMP280;48683;48.084;17.272;2022-12-17T07:40:25;100733.53;;;-0.03
62611;BMP280;48683;48.084;17.272;2022-12-17T07:43:13;100720.28;;;-0.12
62611;BMP280;48683;48.084;17.272;2022-12-17T07:45:57;100726.03;;;-0.10
62611;BMP280;48683;48.084;17.272;2022-12-17T07:48:41;100737.75;;;-0.02
62611;BMP280;48683;48.084;17.272;2022-12-17T07:51:25;100752.78;;;-0.03
62611;BMP280;48683;48.084;17.272;2022-12-17T07:54:09;100766.06;;;0.06
62611;BMP280;48683;48.084;17.272;2022-12-17T07:56:53;100774.66;;;0.12
62611;BMP280;48683;48.084;17.272;2022-12-17T07:59:36;100756.88;;;0.04
62611;BMP280;48683;48.084;17.272;2022-12-17T08:02:20;100757.84;;;0.08
62611;BMP280;48683;48.084;17.272;2022-12-17T08:05:04;100757.53;;;0.09
62611;BMP280;48683;48.084;17.272;2022-12-17T08:07:48;100751.91;;;0.02
62611;BMP280;48683;48.084;17.272;2022-12-17T08:10:32;100761.78;;;-0.04
62611;BMP280;48683;48.084;17.272;2022-12-17T08:13:16;100773.69;;;0.08
62611;BMP280;48683;48.084;17.272;2022-12-17T08:16:00;100780.22;;;0.10
62611;BMP280;48683;48.084;17.272;2022-12-17T08:18:44;100769.03;;;0.13
62611;BMP280;48683;48.084;17.272;2022-12-17T08:21:28;100756.88;;;0.04
62611;BMP280;48683;48.084;17.272;2022-12-17T08:24:12;100758.47;;;0.13
62611;BMP280;48683;48.084;17.272;2022-12-17T08:26:55;100784.28;;;0.16
62611;BMP280;48683;48.084;17.272;2022-12-17T08:29:39;100768.19;;;0.04
62611;BMP280;48683;48.084;17.272;2022-12-17T08:32:23;100773.09;;;0.11
62611;BMP280;48683;48.084;17.272;2022-12-17T08:35:07;100783.31;;;0.12
62611;BMP280;48683;48.084;17.272;2022-12-17T08:37:51;100788.03;;;0.15
62611;BMP280;48683;48.084;17.272;2022-12-17T08:40:35;100783.81;;;0.14
62611;BMP280;48683;48.084;17.272;2022-12-17T08:43:19;100801.75;;;0.26
62611;BMP280;48683;48.084;17.272;2022-12-17T08:46:03;100813.75;;;0.32
62611;BMP280;48683;48.084;17.272;2022-12-17T08:48:47;100817.00;;;0.29
62611;BMP280;48683;48.084;17.272;2022-12-17T08:51:31;100823.84;;;0.30
62611;BMP280;48683;48.084;17.272;2022-12-17T08:54:15;100823.97;;;0.25
62611;BMP280;48683;48.084;17.272;2022-12-17T08:56:58;100833.69;;;0.38
62611;BMP280;48683;48.084;17.272;2022-12-17T08:59:42;100831.81;;;0.38
62611;BMP280;48683;48.084;17.272;2022-12-17T09:02:26;100816.78;;;0.47
62611;BMP280;48683;48.084;17.272;2022-12-17T09:05:10;100823.34;;;0.50
62611;BMP280;48683;48.084;17.272;2022-12-17T09:08:01;100830.66;;;0.53
62611;BMP280;48683;48.084;17.272;2022-12-17T09:10:45;100821.66;;;0.54
62611;BMP280;48683;48.084;17.272;2022-12-17T09:13:30;100840.91;;;0.55
62611;BMP280;48683;48.084;17.272;2022-12-17T09:16:14;100840.63;;;0.56
62611;BMP280;48683;48.084;17.272;2022-12-17T09:18:57;100840.56;;;0.70
62611;BMP280;48683;48.084;17.272;2022-12-17T09:21:41;100838.38;;;0.72
62611;BMP280;48683;48.084;17.272;2022-12-17T09:24:25;100837.59;;;0.71
62611;BMP280;48683;48.084;17.272;2022-12-17T09:27:29;100831.22;;;0.72
62611;BMP280;48683;48.084;17.272;2022-12-17T09:30:13;100825.47;;;0.70
62611;BMP280;48683;48.084;17.272;2022-12-17T09:32:57;100827.94;;;0.67
62611;BMP280;48683;48.084;17.272;2022-12-17T09:35:41;100838.59;;;0.84
62611;BMP280;48683;48.084;17.272;2022-12-17T09:38:25;100835.56;;;0.68
62611;BMP280;48683;48.084;17.272;2022-12-17T09:41:31;100838.88;;;0.74
62611;BMP280;48683;48.084;17.272;2022-12-17T09:44:37;100843.72;;;0.80
62611;BMP280;48683;48.084;17.272;2022-12-17T09:47:30;100858.66;;;0.85
62611;BMP280;48683;48.084;17.272;2022-12-17T09:50:19;100864.75;;;0.85
62611;BMP280;48683;48.084;17.272;2022-12-17T09:53:17;100863.16;;;0.84
62611;BMP280;48683;48.084;17.272;2022-12-17T09:56:02;100863.97;;;0.93
62611;BMP280;48683;48.084;17.272;2022-12-17T09:58:46;100861.03;;;0.95
62611;BMP280;48683;48.084;17.272;2022-12-17T10:01:34;100869.59;;;0.92
62611;BMP280;48683;48.084;17.272;2022-12-17T10:04:37;100866.16;;;0.91
62611;BMP280;48683;48.084;17.272;2022-12-17T10:07:24;100873.66;;;0.98
62611;BMP280;48683;48.084;17.272;2022-12-17T10:10:30;100857.53;;;0.77
62611;BMP280;48683;48.084;17.272;2022-12-17T10:13:17;100869.59;;;0.92
62611;BMP280;48683;48.084;17.272;2022-12-17T10:16:01;100857.59;;;0.94
62611;BMP280;48683;48.084;17.272;2022-12-17T10:18:45;100853.22;;;0.81
62611;BMP280;48683;48.084;17.272;2022-12-17T10:21:30;100886.56;;;1.00
62611;BMP280;48683;48.084;17.272;2022-12-17T10:24:14;100878.50;;;1.05
62611;BMP280;48683;48.084;17.272;2022-12-17T10:27:07;100888.78;;;1.06
62611;BMP280;48683;48.084;17.272;2022-12-17T10:29:51;100886.47;;;1.13
62611;BMP280;48683;48.084;17.272;2022-12-17T10:32:36;100886.75;;;1.03
62611;BMP280;48683;48.084;17.272;2022-12-17T10:35:41;100902.03;;;1.15
62611;BMP280;48683;48.084;17.272;2022-12-17T10:38:29;100915.19;;;1.28
62611;BMP280;48683;48.084;17.272;2022-12-17T10:41:34;100914.41;;;1.36
62611;BMP280;48683;48.084;17.272;2022-12-17T10:44:29;100920.28;;;1.25
62611;BMP280;48683;48.084;17.272;2022-12-17T10:47:16;100914.69;;;1.26
62611;BMP280;48683;48.084;17.272;2022-12-17T10:50:09;100923.13;;;1.37
62611;BMP280;48683;48.084;17.272;2022-12-17T10:52:54;100927.31;;;1.29
62611;BMP280;48683;48.084;17.272;2022-12-17T10:55:49;100923.69;;;1.25
62611;BMP280;48683;48.084;17.272;2022-12-17T10:58:35;100937.28;;;1.32
62611;BMP280;48683;48.084;17.272;2022-12-17T11:01:21;100935.19;;;1.21
62611;BMP280;48683;48.084;17.272;2022-12-17T11:04:30;100948.97;;;1.31
62611;BMP280;48683;48.084;17.272;2022-12-17T11:07:19;100952.38;;;1.32
62611;BMP280;48683;48.084;17.272;2022-12-17T11:10:05;100965.28;;;1.33
62611;BMP280;48683;48.084;17.272;2022-12-17T11:13:01;100965.63;;;1.32
62611;BMP280;48683;48.084;17.272;2022-12-17T11:15:48;100958.09;;;1.25
62611;BMP280;48683;48.084;17.272;2022-12-17T11:21:32;100968.03;;;1.20
62611;BMP280;48683;48.084;17.272;2022-12-17T11:24:32;100953.53;;;1.17
62611;BMP280;48683;48.084;17.272;2022-12-17T11:27:21;100946.00;;;1.02
62611;BMP280;48683;48.084;17.272;2022-12-17T11:30:13;100951.00;;;1.04
62611;BMP280;48683;48.084;17.272;2022-12-17T11:33:11;100953.88;;;0.93
62611;BMP280;48683;48.084;17.272;2022-12-17T11:36:14;100950.41;;;0.84
62611;BMP280;48683;48.084;17.272;2022-12-17T11:39:10;100975.16;;;0.88
62611;BMP280;48683;48.084;17.272;2022-12-17T11:41:58;100992.09;;;0.87
62611;BMP280;48683;48.084;17.272;2022-12-17T11:44:53;100983.56;;;0.90
62611;BMP280;48683;48.084;17.272;2022-12-17T11:47:58;100985.03;;;0.97
62611;BMP280;48683;48.084;17.272;2022-12-17T11:50:49;100960.47;;;0.74
62611;BMP280;48683;48.084;17.272;2022-12-17T11:59:51;100987.25;;;0.81
62611;BMP280;48683;48.084;17.272;2022-12-17T12:05:46;101010.34;;;0.98
62611;BMP280;48683;48.084;17.272;2022-12-17T12:08:36;101004.00;;;0.99
62611;BMP280;48683;48.084;17.272;2022-12-17T12:30:09;101033.59;;;1.01
62611;BMP280;48683;48.084;17.272;2022-12-17T12:33:20;101043.63;;;1.12
62611;BMP280;48683;48.084;17.272;2022-12-17T12:36:09;101035.97;;;1.11
62611;BMP280;48683;48.084;17.272;2022-12-17T12:38:58;101027.50;;;1.00
62611;BMP280;48683;48.084;17.272;2022-12-17T12:42:13;101026.84;;;0.94
62611;BMP280;48683;48.084;17.272;2022-12-17T12:51:12;101035.84;;;0.93
62611;BMP280;48683;48.084;17.272;2022-12-17T12:54:00;101027.72;;;0.90
62611;BMP280;48683;48.084;17.272;2022-12-17T12:56:44;101041.72;;;0.90
62611;BMP280;48683;48.084;17.272;2022-12-17T12:59:30;101040.84;;;0.95
62611;BMP280;48683;48.084;17.272;2022-12-17T13:05:36;101043.31;;;0.91
62611;BMP280;48683;48.084;17.272;2022-12-17T13:10:35;101065.88;;;0.98
62611;BMP280;48683;48.084;17.272;2022-12-17T13:13:29;101071.59;;;0.91
62611;BMP280;48683;48.084;17.272;2022-12-17T13:16:04;101074.44;;;0.94
62611;BMP280;48683;48.084;17.272;2022-12-17T13:18:40;101079.44;;;0.96
62611;BMP280;48683;48.084;17.272;2022-12-17T13:23:40;101081.00;;;0.97
62611;BMP280;48683;48.084;17.272;2022-12-17T13:28:47;101087.03;;;0.98
62611;BMP280;48683;48.084;17.272;2022-12-17T13:31:16;101083.66;;;0.97
62611;BMP280;48683;48.084;17.272;2022-12-17T13:34:05;101085.63;;;0.91
62611;BMP280;48683;48.084;17.272;2022-12-17T13:37:06;101082.50;;;0.89
62611;BMP280;48683;48.084;17.272;2022-12-17T13:39:35;101105.09;;;0.95
62611;BMP280;48683;48.084;17.272;2022-12-17T13:42:03;101110.66;;;0.94
62611;BMP280;48683;48.084;17.272;2022-12-17T13:44:39;101115.16;;;0.93
62611;BMP280;48683;48.084;17.272;2022-12-17T13:47:20;101126.84;;;0.92
62611;BMP280;48683;48.084;17.272;2022-12-17T13:49:54;101135.94;;;1.00
62611;BMP280;48683;48.084;17.272;2022-12-17T13:52:23;101117.94;;;0.88
62611;BMP280;48683;48.084;17.272;2022-12-17T13:54:49;101133.81;;;0.88
62611;BMP280;48683;48.084;17.272;2022-12-17T13:57:16;101131.81;;;0.94
62611;BMP280;48683;48.084;17.272;2022-12-17T13:59:53;101138.69;;;0.95
62611;BMP280;48683;48.084;17.272;2022-12-17T14:02:52;101139.94;;;0.98
62611;BMP280;48683;48.084;17.272;2022-12-17T14:05:29;101157.69;;;0.97
62611;BMP280;48683;48.084;17.272;2022-12-17T14:07:59;101156.31;;;1.00
62611;BMP280;48683;48.084;17.272;2022-12-17T14:10:25;101162.38;;;0.86
62611;BMP280;48683;48.084;17.272;2022-12-17T14:13:06;101166.88;;;0.86
62611;BMP280;48683;48.084;17.272;2022-12-17T14:15:32;101177.00;;;0.84
62611;BMP280;48683;48.084;17.272;2022-12-17T14:17:58;101183.34;;;0.83
62611;BMP280;48683;48.084;17.272;2022-12-17T14:20:25;101187.28;;;0.85
62611;BMP280;48683;48.084;17.272;2022-12-17T14:22:58;101198.34;;;0.87
62611;BMP280;48683;48.084;17.272;2022-12-17T14:25:42;101199.72;;;0.85
62611;BMP280;48683;48.084;17.272;2022-12-17T14:28:29;101211.84;;;0.86
62611;BMP280;48683;48.084;17.272;2022-12-17T14:31:26;101221.53;;;0.90
62611;BMP280;48683;48.084;17.272;2022-12-17T14:36:26;101226.25;;;0.80
62611;BMP280;48683;48.084;17.272;2022-12-17T14:38:54;101221.75;;;0.80
62611;BMP280;48683;48.084;17.272;2022-12-17T14:41:20;101223.00;;;0.83
62611;BMP280;48683;48.084;17.272;2022-12-17T14:44:05;101226.72;;;0.82
62611;BMP280;48683;48.084;17.272;2022-12-17T14:46:32;101235.34;;;0.87
62611;BMP280;48683;48.084;17.272;2022-12-17T14:49:00;101235.75;;;0.81
62611;BMP280;48683;48.084;17.272;2022-12-17T14:51:47;101243.28;;;0.87
62611;BMP280;48683;48.084;17.272;2022-12-17T14:54:30;101245.63;;;0.75
62611;BMP280;48683;48.084;17.272;2022-12-17T14:56:58;101234.16;;;0.66
62611;BMP280;48683;48.084;17.272;2022-12-17T14:59:35;101260.13;;;0.78
62611;BMP280;48683;48.084;17.272;2022-12-17T15:02:13;101263.25;;;0.80
62611;BMP280;48683;48.084;17.272;2022-12-17T15:04:41;101260.50;;;0.71
62611;BMP280;48683;48.084;17.272;2022-12-17T15:07:12;101266.59;;;0.72
62611;BMP280;48683;48.084;17.272;2022-12-17T15:09:39;101268.06;;;0.64
62611;BMP280;48683;48.084;17.272;2022-12-17T15:12:06;101278.22;;;0.71
62611;BMP280;48683;48.084;17.272;2022-12-17T15:14:31;101272.56;;;0.64
62611;BMP280;48683;48.084;17.272;2022-12-17T15:16:56;101293.81;;;0.72
62611;BMP280;48683;48.084;17.272;2022-12-17T15:19:23;101292.22;;;0.71
62611;BMP280;48683;48.084;17.272;2022-12-17T15:21:49;101304.50;;;0.81
62611;BMP280;48683;48.084;17.272;2022-12-17T15:24:18;101301.47;;;0.74
62611;BMP280;48683;48.084;17.272;2022-12-17T15:26:44;101317.41;;;0.82
62611;BMP280;48683;48.084;17.272;2022-12-17T15:29:10;101319.56;;;0.94
62611;BMP280;48683;48.084;17.272;2022-12-17T15:31:35;101324.69;;;1.04
62611;BMP280;48683;48.084;17.272;2022-12-17T15:34:01;101321.53;;;1.02
62611;BMP280;48683;48.084;17.272;2022-12-17T15:36:26;101322.22;;;1.08
62611;BMP280;48683;48.084;17.272;2022-12-17T15:38:51;101329.28;;;1.12
62611;BMP280;48683;48.084;17.272;2022-12-17T15:41:17;101334.38;;;1.09
62611;BMP280;48683;48.084;17.272;2022-12-17T15:44:00;101326.16;;;0.97
62611;BMP280;48683;48.084;17.272;2022-12-17T15:46:26;101328.19;;;0.86
62611;BMP280;48683;48.084;17.272;2022-12-17T15:48:51;101332.72;;;0.85
62611;BMP280;48683;48.084;17.272;2022-12-17T15:51:17;101344.34;;;0.84
62611;BMP280;48683;48.084;17.272;2022-12-17T15:53:45;101340.31;;;0.73
62611;BMP280;48683;48.084;17.272;2022-12-17T15:56:20;101351.09;;;0.77
62611;BMP280;48683;48.084;17.272;2022-12-17T15:58:46;101357.19;;;0.77
62611;BMP280;48683;48.084;17.272;2022-12-17T16:01:12;101364.53;;;0.80
62611;BMP280;48683;48.084;17.272;2022-12-17T16:03:37;101362.34;;;0.82
62611;BMP280;48683;48.084;17.272;2022-12-17T16:06:02;101364.72;;;0.84
62611;BMP280;48683;48.084;17.272;2022-12-17T16:08:28;101366.09;;;0.81
62611;BMP280;48683;48.084;17.272;2022-12-17T16:10:53;101368.22;;;0.79
62611;BMP280;48683;48.084;17.272;2022-12-17T16:13:18;101370.19;;;0.74
62611;BMP280;48683;48.084;17.272;2022-12-17T16:15:44;101377.44;;;0.82
62611;BMP280;48683;48.084;17.272;2022-12-17T16:18:09;101376.25;;;0.74
62611;BMP280;48683;48.084;17.272;2022-12-17T16:20:35;101392.63;;;0.90
62611;BMP280;48683;48.084;17.272;2022-12-17T16:23:00;101374.03;;;0.81
62611;BMP280;48683;48.084;17.272;2022-12-17T16:25:25;101380.06;;;0.82